Strona główna
METAR-TAF:

METAR-TAF

Lotnisko :

Baza lotnicza Lanvéoc-Poulmic

Lanvéoc, Francja

Szerokość geograficzna: 48-17N, Długość geograficzna: 004-26W, wysokość: 87 m

Aktualna obserwacja pogody

Raport powstał 28 minut temu, godzina 07:30 UTC
Wiatr 3 kt od wschodnio-północny wschód, zmienny między północny wschód i wschodnio-południowy wschód
Temperatura 3°C
Wilgotność 93%
Ciśnienie 1047 hPa
Widzialność 10 km lub więcej
Brak chmur poniżej 1500 m i brak chmur cumulonimbus

METAR: LFRL 200730Z AUTO 07003KT 040V120 CAVOK 03/02 Q1047 NOSIG

czas: 08:58 (07:58 UTC)

Prognoza

Raport powstał 2 godziny i 58 minut temu, godzina 05:00 UTC
Prognoza ważna od 20 godzina 06 UTC do 21 godzina 06 UTC
Wiatr 9 kt od północny wschód
Widzialność 10 km lub więcej
Brak chmur poniżej 1500 m i brak chmur cumulonimbus

TAF: LFRL 200500Z 2006/2106 05009KT CAVOK

Obserwacja i prognoza pogody dla ponad 4000 lotnisk (raport METAR i TAF).

Dostępne stacje oznaczono żółtymi i czerwonymi punktami na mapie.

Najedź kursorem aby zobaczyć nazwę stacji.

Kliknij aby zobaczyć obserwacje i prognozy pogody.

Aby zmienić mapę: kliknij na zielony przycisk z czarnym krzyżykiem, aby powiększyć; na zielony przycisk z myślnikiem, aby pomniejszyć; na zielone strzałki, aby przejść do map sąsiednich.


METAR-TAF: